sensor_id;sensor_type;location;lat;lon;timestamp;temperature;humidity
8231;DHT22;4156;50.908;6.974;2023-04-30T00:00:50;13.00;99.90
8231;DHT22;4156;50.908;6.974;2023-04-30T00:03:16;13.00;99.90
8231;DHT22;4156;50.908;6.974;2023-04-30T00:05:41;13.00;99.90
8231;DHT22;4156;50.908;6.974;2023-04-30T00:08:07;13.00;99.90
8231;DHT22;4156;50.908;6.974;2023-04-30T00:10:32;13.00;99.90
8231;DHT22;4156;50.908;6.974;2023-04-30T00:12:58;12.90;99.90
8231;DHT22;4156;50.908;6.974;2023-04-30T00:15:23;12.90;99.90
8231;DHT22;4156;50.908;6.974;2023-04-30T00:17:49;12.90;99.90
8231;DHT22;4156;50.908;6.974;2023-04-30T00:20:14;12.60;99.90
8231;DHT22;4156;50.908;6.974;2023-04-30T00:22:40;12.90;99.90
8231;DHT22;4156;50.908;6.974;2023-04-30T00:25:05;12.90;99.90
8231;DHT22;4156;50.908;6.974;2023-04-30T00:27:31;12.90;99.90
8231;DHT22;4156;50.908;6.974;2023-04-30T00:29:57;12.90;99.90
8231;DHT22;4156;50.908;6.974;2023-04-30T00:32:23;12.80;99.90
8231;DHT22;4156;50.908;6.974;2023-04-30T00:34:48;12.80;99.90
8231;DHT22;4156;50.908;6.974;2023-04-30T00:37:14;12.80;99.90
8231;DHT22;4156;50.908;6.974;2023-04-30T00:39:39;12.80;99.90
8231;DHT22;4156;50.908;6.974;2023-04-30T00:42:05;12.80;99.90
8231;DHT22;4156;50.908;6.974;2023-04-30T00:44:30;12.80;99.90
8231;DHT22;4156;50.908;6.974;2023-04-30T00:46:56;12.70;99.90
8231;DHT22;4156;50.908;6.974;2023-04-30T00:49:21;12.70;99.90
8231;DHT22;4156;50.908;6.974;2023-04-30T00:51:47;12.70;99.90
8231;DHT22;4156;50.908;6.974;2023-04-30T00:54:13;12.60;99.90
8231;DHT22;4156;50.908;6.974;2023-04-30T00:56:39;12.60;99.90
8231;DHT22;4156;50.908;6.974;2023-04-30T00:59:05;12.60;99.90
8231;DHT22;4156;50.908;6.974;2023-04-30T01:01:31;12.60;99.90
8231;DHT22;4156;50.908;6.974;2023-04-30T01:03:57;12.60;99.90
8231;DHT22;4156;50.908;6.974;2023-04-30T01:06:23;12.60;99.90
8231;DHT22;4156;50.908;6.974;2023-04-30T01:08:49;12.50;99.90
8231;DHT22;4156;50.908;6.974;2023-04-30T01:17:05;12.40;99.90
8231;DHT22;4156;50.908;6.974;2023-04-30T01:19:41;12.40;99.90
8231;DHT22;4156;50.908;6.974;2023-04-30T01:22:15;12.40;99.90
8231;DHT22;4156;50.908;6.974;2023-04-30T01:24:53;12.40;99.90
8231;DHT22;4156;50.908;6.974;2023-04-30T01:30:09;12.30;99.90
8231;DHT22;4156;50.908;6.974;2023-04-30T01:32:36;12.30;99.90
8231;DHT22;4156;50.908;6.974;2023-04-30T01:35:01;12.40;99.90
8231;DHT22;4156;50.908;6.974;2023-04-30T01:40:28;12.30;99.90
8231;DHT22;4156;50.908;6.974;2023-04-30T01:43:00;12.30;99.90
8231;DHT22;4156;50.908;6.974;2023-04-30T01:51:42;12.30;99.90
8231;DHT22;4156;50.908;6.974;2023-04-30T01:54:19;12.30;99.90
8231;DHT22;4156;50.908;6.974;2023-04-30T01:57:05;12.20;99.90
8231;DHT22;4156;50.908;6.974;2023-04-30T01:59:37;12.20;99.90
8231;DHT22;4156;50.908;6.974;2023-04-30T02:02:04;12.20;99.90
8231;DHT22;4156;50.908;6.974;2023-04-30T02:04:30;12.20;99.90
8231;DHT22;4156;50.908;6.974;2023-04-30T02:06:56;12.20;99.90
8231;DHT22;4156;50.908;6.974;2023-04-30T02:09:23;12.20;99.90
8231;DHT22;4156;50.908;6.974;2023-04-30T02:11:48;12.10;99.90
8231;DHT22;4156;50.908;6.974;2023-04-30T02:14:14;12.20;99.90
8231;DHT22;4156;50.908;6.974;2023-04-30T02:16:40;12.10;99.90
8231;DHT22;4156;50.908;6.974;2023-04-30T02:19:05;12.10;99.90
8231;DHT22;4156;50.908;6.974;2023-04-30T02:21:31;12.00;99.90
8231;DHT22;4156;50.908;6.974;2023-04-30T02:23:56;12.00;99.90
8231;DHT22;4156;50.908;6.974;2023-04-30T02:26:22;12.00;99.90
8231;DHT22;4156;50.908;6.974;2023-04-30T02:28:47;12.00;99.90
8231;DHT22;4156;50.908;6.974;2023-04-30T02:31:13;12.00;99.90
8231;DHT22;4156;50.908;6.974;2023-04-30T02:33:38;12.00;99.90
8231;DHT22;4156;50.908;6.974;2023-04-30T02:36:04;11.90;99.90
8231;DHT22;4156;50.908;6.974;2023-04-30T02:38:30;11.90;99.90
8231;DHT22;4156;50.908;6.974;2023-04-30T02:40:55;11.90;99.90
8231;DHT22;4156;50.908;6.974;2023-04-30T02:43:21;11.90;99.90
8231;DHT22;4156;50.908;6.974;2023-04-30T02:45:47;11.90;99.90
8231;DHT22;4156;50.908;6.974;2023-04-30T02:48:12;11.90;99.90
8231;DHT22;4156;50.908;6.974;2023-04-30T02:50:38;11.90;99.90
8231;DHT22;4156;50.908;6.974;2023-04-30T02:53:03;11.80;99.90
8231;DHT22;4156;50.908;6.974;2023-04-30T02:55:29;11.80;99.90
8231;DHT22;4156;50.908;6.974;2023-04-30T02:57:55;11.80;99.90
8231;DHT22;4156;50.908;6.974;2023-04-30T03:00:20;11.80;99.90
8231;DHT22;4156;50.908;6.974;2023-04-30T03:02:46;11.70;99.90
8231;DHT22;4156;50.908;6.974;2023-04-30T03:05:12;11.70;99.90
8231;DHT22;4156;50.908;6.974;2023-04-30T03:07:38;11.70;99.90
8231;DHT22;4156;50.908;6.974;2023-04-30T03:10:04;11.70;99.90
8231;DHT22;4156;50.908;6.974;2023-04-30T03:12:29;11.60;99.90
8231;DHT22;4156;50.908;6.974;2023-04-30T03:14:55;11.60;99.90
8231;DHT22;4156;50.908;6.974;2023-04-30T03:17:21;11.60;99.90
8231;DHT22;4156;50.908;6.974;2023-04-30T03:19:47;11.60;99.90
8231;DHT22;4156;50.908;6.974;2023-04-30T03:22:13;11.60;99.90
8231;DHT22;4156;50.908;6.974;2023-04-30T03:24:38;11.60;99.90
8231;DHT22;4156;50.908;6.974;2023-04-30T03:27:04;11.60;99.90
8231;DHT22;4156;50.908;6.974;2023-04-30T03:29:29;11.50;99.90
8231;DHT22;4156;50.908;6.974;2023-04-30T03:31:55;11.50;99.90
8231;DHT22;4156;50.908;6.974;2023-04-30T03:34:20;11.50;99.90
8231;DHT22;4156;50.908;6.974;2023-04-30T03:36:46;11.50;99.90
8231;DHT22;4156;50.908;6.974;2023-04-30T03:39:11;11.50;99.90
8231;DHT22;4156;50.908;6.974;2023-04-30T03:41:37;11.40;99.90
8231;DHT22;4156;50.908;6.974;2023-04-30T03:44:02;11.40;99.90
8231;DHT22;4156;50.908;6.974;2023-04-30T03:46:28;11.40;99.90
8231;DHT22;4156;50.908;6.974;2023-04-30T03:48:53;11.40;99.90
8231;DHT22;4156;50.908;6.974;2023-04-30T03:51:19;11.30;99.90
8231;DHT22;4156;50.908;6.974;2023-04-30T03:53:45;11.30;99.90
8231;DHT22;4156;50.908;6.974;2023-04-30T03:56:11;11.30;99.90
8231;DHT22;4156;50.908;6.974;2023-04-30T03:58:37;11.30;99.90
8231;DHT22;4156;50.908;6.974;2023-04-30T04:01:03;11.30;99.90
8231;DHT22;4156;50.908;6.974;2023-04-30T04:03:28;11.30;99.90
8231;DHT22;4156;50.908;6.974;2023-04-30T04:05:54;11.30;99.90
8231;DHT22;4156;50.908;6.974;2023-04-30T04:08:20;11.20;99.90
8231;DHT22;4156;50.908;6.974;2023-04-30T04:10:45;11.20;99.90
8231;DHT22;4156;50.908;6.974;2023-04-30T04:13:11;11.20;99.90
8231;DHT22;4156;50.908;6.974;2023-04-30T04:15:36;11.10;99.90
8231;DHT22;4156;50.908;6.974;2023-04-30T04:18:02;11.10;99.90
8231;DHT22;4156;50.908;6.974;2023-04-30T04:20:27;11.10;99.90
8231;DHT22;4156;50.908;6.974;2023-04-30T04:22:54;11.10;99.90
8231;DHT22;4156;50.908;6.974;2023-04-30T04:25:20;11.10;99.90
8231;DHT22;4156;50.908;6.974;2023-04-30T04:27:50;11.10;99.90
8231;DHT22;4156;50.908;6.974;2023-04-30T04:30:16;11.10;99.90
8231;DHT22;4156;50.908;6.974;2023-04-30T04:32:42;11.10;99.90
8231;DHT22;4156;50.908;6.974;2023-04-30T04:35:13;11.00;99.90
8231;DHT22;4156;50.908;6.974;2023-04-30T04:37:38;11.00;99.90
8231;DHT22;4156;50.908;6.974;2023-04-30T04:40:04;10.90;99.90
8231;DHT22;4156;50.908;6.974;2023-04-30T04:42:30;11.00;99.90
8231;DHT22;4156;50.908;6.974;2023-04-30T04:44:56;11.00;99.90
8231;DHT22;4156;50.908;6.974;2023-04-30T04:47:22;11.00;99.90
8231;DHT22;4156;50.908;6.974;2023-04-30T04:49:47;11.00;99.90
8231;DHT22;4156;50.908;6.974;2023-04-30T04:52:13;11.00;99.90
8231;DHT22;4156;50.908;6.974;2023-04-30T04:54:38;11.00;99.90
8231;DHT22;4156;50.908;6.974;2023-04-30T04:57:04;11.00;99.90
8231;DHT22;4156;50.908;6.974;2023-04-30T04:59:29;11.00;99.90
8231;DHT22;4156;50.908;6.974;2023-04-30T05:01:55;11.00;99.90
8231;DHT22;4156;50.908;6.974;2023-04-30T05:04:21;11.00;99.90
8231;DHT22;4156;50.908;6.974;2023-04-30T05:06:46;11.00;99.90
8231;DHT22;4156;50.908;6.974;2023-04-30T05:09:12;11.00;99.90
8231;DHT22;4156;50.908;6.974;2023-04-30T05:11:37;11.10;99.90
8231;DHT22;4156;50.908;6.974;2023-04-30T05:14:05;11.10;99.90
8231;DHT22;4156;50.908;6.974;2023-04-30T05:16:31;11.20;99.90
8231;DHT22;4156;50.908;6.974;2023-04-30T05:18:56;11.20;99.90
8231;DHT22;4156;50.908;6.974;2023-04-30T05:21:22;11.20;99.90
8231;DHT22;4156;50.908;6.974;2023-04-30T05:23:48;11.30;99.90
8231;DHT22;4156;50.908;6.974;2023-04-30T05:26:13;11.30;99.90
8231;DHT22;4156;50.908;6.974;2023-04-30T05:28:39;11.40;99.90
8231;DHT22;4156;50.908;6.974;2023-04-30T05:31:04;11.50;99.90
8231;DHT22;4156;50.908;6.974;2023-04-30T05:33:30;11.50;99.90
8231;DHT22;4156;50.908;6.974;2023-04-30T05:35:55;11.50;99.90
8231;DHT22;4156;50.908;6.974;2023-04-30T05:38:21;11.60;99.90
8231;DHT22;4156;50.908;6.974;2023-04-30T05:40:46;11.60;99.90
8231;DHT22;4156;50.908;6.974;2023-04-30T05:43:12;11.70;99.90
8231;DHT22;4156;50.908;6.974;2023-04-30T05:45:37;11.80;99.90
8231;DHT22;4156;50.908;6.974;2023-04-30T05:48:03;11.80;99.90
8231;DHT22;4156;50.908;6.974;2023-04-30T05:50:28;11.80;99.90
8231;DHT22;4156;50.908;6.974;2023-04-30T05:52:54;11.80;99.90
8231;DHT22;4156;50.908;6.974;2023-04-30T05:55:19;11.90;99.90
8231;DHT22;4156;50.908;6.974;2023-04-30T05:57:45;11.90;99.90
8231;DHT22;4156;50.908;6.974;2023-04-30T06:00:11;11.90;99.90
8231;DHT22;4156;50.908;6.974;2023-04-30T06:02:36;11.90;99.90
8231;DHT22;4156;50.908;6.974;2023-04-30T06:05:02;11.90;99.90
8231;DHT22;4156;50.908;6.974;2023-04-30T06:07:28;12.00;99.90
8231;DHT22;4156;50.908;6.974;2023-04-30T06:09:53;12.00;99.90
8231;DHT22;4156;50.908;6.974;2023-04-30T06:12:19;12.10;99.90
8231;DHT22;4156;50.908;6.974;2023-04-30T06:14:45;12.10;99.90
8231;DHT22;4156;50.908;6.974;2023-04-30T06:17:11;12.10;99.90
8231;DHT22;4156;50.908;6.974;2023-04-30T06:19:37;12.20;99.90
8231;DHT22;4156;50.908;6.974;2023-04-30T06:22:03;12.20;99.90
8231;DHT22;4156;50.908;6.974;2023-04-30T06:24:29;12.30;99.90
8231;DHT22;4156;50.908;6.974;2023-04-30T06:26:55;12.30;99.90
8231;DHT22;4156;50.908;6.974;2023-04-30T06:29:20;12.30;99.90
8231;DHT22;4156;50.908;6.974;2023-04-30T06:31:48;12.40;99.90
8231;DHT22;4156;50.908;6.974;2023-04-30T06:34:15;12.50;99.90
8231;DHT22;4156;50.908;6.974;2023-04-30T06:36:40;12.50;99.90
8231;DHT22;4156;50.908;6.974;2023-04-30T06:39:06;12.50;99.90
8231;DHT22;4156;50.908;6.974;2023-04-30T06:41:31;12.60;99.90
8231;DHT22;4156;50.908;6.974;2023-04-30T06:43:57;12.60;99.90
8231;DHT22;4156;50.908;6.974;2023-04-30T06:46:22;12.70;99.90
8231;DHT22;4156;50.908;6.974;2023-04-30T06:48:48;12.70;99.90
8231;DHT22;4156;50.908;6.974;2023-04-30T06:51:13;12.80;99.90
8231;DHT22;4156;50.908;6.974;2023-04-30T06:53:39;12.80;99.90
8231;DHT22;4156;50.908;6.974;2023-04-30T06:56:04;12.90;99.90
8231;DHT22;4156;50.908;6.974;2023-04-30T06:58:30;13.00;99.90
8231;DHT22;4156;50.908;6.974;2023-04-30T07:00:56;13.00;99.90
8231;DHT22;4156;50.908;6.974;2023-04-30T07:03:22;13.10;99.90
8231;DHT22;4156;50.908;6.974;2023-04-30T07:05:48;13.20;99.90
8231;DHT22;4156;50.908;6.974;2023-04-30T07:08:13;13.20;99.90
8231;DHT22;4156;50.908;6.974;2023-04-30T07:10:39;13.30;99.90
8231;DHT22;4156;50.908;6.974;2023-04-30T07:13:05;13.30;99.90
8231;DHT22;4156;50.908;6.974;2023-04-30T07:15:32;13.30;99.90
8231;DHT22;4156;50.908;6.974;2023-04-30T07:17:58;13.40;99.90
8231;DHT22;4156;50.908;6.974;2023-04-30T07:20:23;13.40;99.90
8231;DHT22;4156;50.908;6.974;2023-04-30T07:22:49;13.50;99.90
8231;DHT22;4156;50.908;6.974;2023-04-30T07:25:14;13.50;99.90
8231;DHT22;4156;50.908;6.974;2023-04-30T07:27:40;13.60;99.90
8231;DHT22;4156;50.908;6.974;2023-04-30T07:30:07;13.60;99.90
8231;DHT22;4156;50.908;6.974;2023-04-30T07:32:34;13.70;99.90
8231;DHT22;4156;50.908;6.974;2023-04-30T07:35:00;13.70;99.90
8231;DHT22;4156;50.908;6.974;2023-04-30T07:37:25;13.80;99.90
8231;DHT22;4156;50.908;6.974;2023-04-30T07:39:51;13.80;99.90
8231;DHT22;4156;50.908;6.974;2023-04-30T07:42:16;13.90;99.90
8231;DHT22;4156;50.908;6.974;2023-04-30T07:44:42;13.90;99.90
8231;DHT22;4156;50.908;6.974;2023-04-30T07:47:08;13.90;99.90
8231;DHT22;4156;50.908;6.974;2023-04-30T07:49:34;13.90;99.90
8231;DHT22;4156;50.908;6.974;2023-04-30T07:51:59;14.00;99.90
8231;DHT22;4156;50.908;6.974;2023-04-30T07:54:26;14.00;99.90
8231;DHT22;4156;50.908;6.974;2023-04-30T07:56:52;14.10;99.90
8231;DHT22;4156;50.908;6.974;2023-04-30T07:59:17;14.20;99.90
8231;DHT22;4156;50.908;6.974;2023-04-30T08:01:43;14.20;99.90
8231;DHT22;4156;50.908;6.974;2023-04-30T08:04:09;14.20;99.90
8231;DHT22;4156;50.908;6.974;2023-04-30T08:06:34;14.30;99.90
8231;DHT22;4156;50.908;6.974;2023-04-30T08:09:00;14.30;99.90
8231;DHT22;4156;50.908;6.974;2023-04-30T08:11:26;14.30;99.90
8231;DHT22;4156;50.908;6.974;2023-04-30T08:13:51;14.40;99.90
8231;DHT22;4156;50.908;6.974;2023-04-30T08:16:17;14.40;99.90
8231;DHT22;4156;50.908;6.974;2023-04-30T08:18:42;14.50;99.90
8231;DHT22;4156;50.908;6.974;2023-04-30T08:21:10;14.50;99.90
8231;DHT22;4156;50.908;6.974;2023-04-30T08:23:36;14.50;99.90
8231;DHT22;4156;50.908;6.974;2023-04-30T08:26:01;14.60;99.90
8231;DHT22;4156;50.908;6.974;2023-04-30T08:28:27;14.60;99.90
8231;DHT22;4156;50.908;6.974;2023-04-30T08:30:52;14.70;99.90
8231;DHT22;4156;50.908;6.974;2023-04-30T08:33:18;14.70;99.90
8231;DHT22;4156;50.908;6.974;2023-04-30T08:35:43;14.70;99.90
8231;DHT22;4156;50.908;6.974;2023-04-30T08:38:09;14.80;99.90
8231;DHT22;4156;50.908;6.974;2023-04-30T08:40:35;14.80;99.90
8231;DHT22;4156;50.908;6.974;2023-04-30T08:43:05;14.80;99.90
8231;DHT22;4156;50.908;6.974;2023-04-30T08:45:32;14.90;99.90
8231;DHT22;4156;50.908;6.974;2023-04-30T08:47:58;15.00;99.90
8231;DHT22;4156;50.908;6.974;2023-04-30T08:50:25;15.00;99.90
8231;DHT22;4156;50.908;6.974;2023-04-30T08:52:50;15.00;99.90
8231;DHT22;4156;50.908;6.974;2023-04-30T08:55:16;15.00;99.90
8231;DHT22;4156;50.908;6.974;2023-04-30T08:57:41;15.00;99.90
8231;DHT22;4156;50.908;6.974;2023-04-30T09:00:07;15.00;99.90
8231;DHT22;4156;50.908;6.974;2023-04-30T09:02:34;15.10;99.90
8231;DHT22;4156;50.908;6.974;2023-04-30T09:04:59;15.10;99.90
8231;DHT22;4156;50.908;6.974;2023-04-30T09:07:26;15.20;99.90
8231;DHT22;4156;50.908;6.974;2023-04-30T09:09:53;15.20;99.90
8231;DHT22;4156;50.908;6.974;2023-04-30T09:12:18;15.20;99.90
8231;DHT22;4156;50.908;6.974;2023-04-30T09:15:04;15.20;99.90
8231;DHT22;4156;50.908;6.974;2023-04-30T09:17:30;15.30;99.90
8231;DHT22;4156;50.908;6.974;2023-04-30T09:20:10;15.30;99.90
8231;DHT22;4156;50.908;6.974;2023-04-30T09:22:37;15.40;99.90
8231;DHT22;4156;50.908;6.974;2023-04-30T09:25:03;15.40;99.90
8231;DHT22;4156;50.908;6.974;2023-04-30T09:27:29;15.40;99.90
8231;DHT22;4156;50.908;6.974;2023-04-30T09:29:54;15.50;99.90
8231;DHT22;4156;50.908;6.974;2023-04-30T09:32:20;15.50;99.90
8231;DHT22;4156;50.908;6.974;2023-04-30T09:34:46;15.50;99.90
8231;DHT22;4156;50.908;6.974;2023-04-30T09:37:11;15.50;99.90
8231;DHT22;4156;50.908;6.974;2023-04-30T09:39:50;15.50;99.90
8231;DHT22;4156;50.908;6.974;2023-04-30T09:42:17;15.60;99.90
8231;DHT22;4156;50.908;6.974;2023-04-30T09:44:43;15.60;99.90
8231;DHT22;4156;50.908;6.974;2023-04-30T09:47:17;15.60;99.90
8231;DHT22;4156;50.908;6.974;2023-04-30T09:49:47;15.70;99.90
8231;DHT22;4156;50.908;6.974;2023-04-30T09:52:16;15.70;99.90
8231;DHT22;4156;50.908;6.974;2023-04-30T09:54:43;15.70;99.90
8231;DHT22;4156;50.908;6.974;2023-04-30T09:57:10;15.80;99.90
8231;DHT22;4156;50.908;6.974;2023-04-30T09:59:36;15.80;99.90
8231;DHT22;4156;50.908;6.974;2023-04-30T10:02:05;15.80;99.90
8231;DHT22;4156;50.908;6.974;2023-04-30T10:04:38;15.80;99.90
8231;DHT22;4156;50.908;6.974;2023-04-30T10:07:11;15.80;99.90
8231;DHT22;4156;50.908;6.974;2023-04-30T10:12:14;15.90;99.90
8231;DHT22;4156;50.908;6.974;2023-04-30T10:14:47;16.00;99.90
8231;DHT22;4156;50.908;6.974;2023-04-30T10:17:15;16.00;99.90
8231;DHT22;4156;50.908;6.974;2023-04-30T10:19:45;16.00;99.90
8231;DHT22;4156;50.908;6.974;2023-04-30T10:22:12;16.00;99.90
8231;DHT22;4156;50.908;6.974;2023-04-30T10:24:39;16.10;99.90
8231;DHT22;4156;50.908;6.974;2023-04-30T10:27:06;16.10;99.90
8231;DHT22;4156;50.908;6.974;2023-04-30T10:29:31;16.20;99.90
8231;DHT22;4156;50.908;6.974;2023-04-30T10:31:58;16.20;99.90
8231;DHT22;4156;50.908;6.974;2023-04-30T10:37:23;16.30;99.90
8231;DHT22;4156;50.908;6.974;2023-04-30T10:39:50;16.30;99.90
8231;DHT22;4156;50.908;6.974;2023-04-30T10:42:16;16.40;99.90
8231;DHT22;4156;50.908;6.974;2023-04-30T10:44:42;16.40;99.90
8231;DHT22;4156;50.908;6.974;2023-04-30T10:47:07;16.40;99.90
8231;DHT22;4156;50.908;6.974;2023-04-30T10:49:33;16.40;99.90
8231;DHT22;4156;50.908;6.974;2023-04-30T10:52:03;16.40;99.90
8231;DHT22;4156;50.908;6.974;2023-04-30T10:54:34;16.40;99.90
8231;DHT22;4156;50.908;6.974;2023-04-30T10:59:49;16.40;99.90
8231;DHT22;4156;50.908;6.974;2023-04-30T11:02:15;16.40;99.90
8231;DHT22;4156;50.908;6.974;2023-04-30T11:07:34;16.50;99.90
8231;DHT22;4156;50.908;6.974;2023-04-30T11:10:00;17.00;99.90
8231;DHT22;4156;50.908;6.974;2023-04-30T11:12:27;16.60;99.90
8231;DHT22;4156;50.908;6.974;2023-04-30T11:15:00;16.50;99.90
8231;DHT22;4156;50.908;6.974;2023-04-30T11:17:26;16.50;99.90
8231;DHT22;4156;50.908;6.974;2023-04-30T11:19:53;16.50;99.90
8231;DHT22;4156;50.908;6.974;2023-04-30T11:22:23;16.50;99.90
8231;DHT22;4156;50.908;6.974;2023-04-30T11:27:30;16.60;99.90
8231;DHT22;4156;50.908;6.974;2023-04-30T11:29:57;16.70;99.90
8231;DHT22;4156;50.908;6.974;2023-04-30T11:32:33;16.70;99.90
8231;DHT22;4156;50.908;6.974;2023-04-30T11:35:03;16.70;99.90
8231;DHT22;4156;50.908;6.974;2023-04-30T11:37:30;16.80;99.90
8231;DHT22;4156;50.908;6.974;2023-04-30T11:40:00;16.80;99.90
8231;DHT22;4156;50.908;6.974;2023-04-30T11:42:25;16.80;99.90
8231;DHT22;4156;50.908;6.974;2023-04-30T11:44:51;16.80;99.90
8231;DHT22;4156;50.908;6.974;2023-04-30T11:47:16;16.90;99.90
8231;DHT22;4156;50.908;6.974;2023-04-30T11:49:42;16.90;99.90
8231;DHT22;4156;50.908;6.974;2023-04-30T11:52:08;16.90;99.90
8231;DHT22;4156;50.908;6.974;2023-04-30T11:54:37;16.90;99.90
8231;DHT22;4156;50.908;6.974;2023-04-30T11:57:03;17.00;99.90
8231;DHT22;4156;50.908;6.974;2023-04-30T11:59:39;16.90;99.90
8231;DHT22;4156;50.908;6.974;2023-04-30T12:02:06;17.00;99.90
8231;DHT22;4156;50.908;6.974;2023-04-30T12:04:31;17.00;99.90
8231;DHT22;4156;50.908;6.974;2023-04-30T12:06:59;17.10;99.90
8231;DHT22;4156;50.908;6.974;2023-04-30T12:09:24;17.10;99.90
8231;DHT22;4156;50.908;6.974;2023-04-30T12:11:50;17.10;99.90
8231;DHT22;4156;50.908;6.974;2023-04-30T12:14:15;17.10;99.90
8231;DHT22;4156;50.908;6.974;2023-04-30T12:16:46;17.10;99.90
8231;DHT22;4156;50.908;6.974;2023-04-30T12:19:14;17.10;99.90
8231;DHT22;4156;50.908;6.974;2023-04-30T12:21:41;17.10;99.90
8231;DHT22;4156;50.908;6.974;2023-04-30T12:24:11;17.10;99.90
8231;DHT22;4156;50.908;6.974;2023-04-30T12:26:37;17.20;99.90
8231;DHT22;4156;50.908;6.974;2023-04-30T12:29:24;17.20;99.90
8231;DHT22;4156;50.908;6.974;2023-04-30T12:31:50;17.20;99.90
8231;DHT22;4156;50.908;6.974;2023-04-30T12:34:16;17.30;99.90
8231;DHT22;4156;50.908;6.974;2023-04-30T12:36:43;17.30;99.90
8231;DHT22;4156;50.908;6.974;2023-04-30T12:41:39;17.30;99.90
8231;DHT22;4156;50.908;6.974;2023-04-30T12:44:23;17.40;99.90
8231;DHT22;4156;50.908;6.974;2023-04-30T12:46:52;17.40;99.90
8231;DHT22;4156;50.908;6.974;2023-04-30T12:49:33;17.40;99.90
8231;DHT22;4156;50.908;6.974;2023-04-30T12:54:30;17.40;99.90
8231;DHT22;4156;50.908;6.974;2023-04-30T12:57:08;17.50;99.90
8231;DHT22;4156;50.908;6.974;2023-04-30T12:59:36;17.50;99.90
8231;DHT22;4156;50.908;6.974;2023-04-30T13:02:09;17.60;99.90
8231;DHT22;4156;50.908;6.974;2023-04-30T13:04:35;17.60;99.90
8231;DHT22;4156;50.908;6.974;2023-04-30T13:07:02;17.60;99.90
8231;DHT22;4156;50.908;6.974;2023-04-30T13:09:30;17.60;99.90
8231;DHT22;4156;50.908;6.974;2023-04-30T13:11:56;17.60;99.90
8231;DHT22;4156;50.908;6.974;2023-04-30T13:14:21;17.60;99.90
8231;DHT22;4156;50.908;6.974;2023-04-30T13:16:47;17.60;99.90
8231;DHT22;4156;50.908;6.974;2023-04-30T13:19:13;17.60;99.90
8231;DHT22;4156;50.908;6.974;2023-04-30T13:21:38;17.50;99.90
8231;DHT22;4156;50.908;6.974;2023-04-30T13:24:04;17.60;99.90
8231;DHT22;4156;50.908;6.974;2023-04-30T13:26:29;17.70;99.90
8231;DHT22;4156;50.908;6.974;2023-04-30T13:28:55;17.70;99.90
8231;DHT22;4156;50.908;6.974;2023-04-30T13:31:21;17.70;99.90
8231;DHT22;4156;50.908;6.974;2023-04-30T13:33:47;17.70;99.90
8231;DHT22;4156;50.908;6.974;2023-04-30T13:36:13;17.70;99.90
8231;DHT22;4156;50.908;6.974;2023-04-30T13:38:38;17.70;99.90
8231;DHT22;4156;50.908;6.974;2023-04-30T13:41:04;17.70;99.90
8231;DHT22;4156;50.908;6.974;2023-04-30T13:43:30;17.70;99.90
8231;DHT22;4156;50.908;6.974;2023-04-30T13:45:56;17.70;99.90
8231;DHT22;4156;50.908;6.974;2023-04-30T13:48:23;17.70;99.90
8231;DHT22;4156;50.908;6.974;2023-04-30T13:50:50;17.70;99.90
8231;DHT22;4156;50.908;6.974;2023-04-30T13:53:16;17.70;99.90
8231;DHT22;4156;50.908;6.974;2023-04-30T13:55:42;17.70;99.90
8231;DHT22;4156;50.908;6.974;2023-04-30T13:58:07;17.80;99.90
8231;DHT22;4156;50.908;6.974;2023-04-30T14:00:33;17.80;99.90
8231;DHT22;4156;50.908;6.974;2023-04-30T14:02:58;18.10;99.90
8231;DHT22;4156;50.908;6.974;2023-04-30T14:05:24;17.90;99.90
8231;DHT22;4156;50.908;6.974;2023-04-30T14:07:50;17.90;99.90
8231;DHT22;4156;50.908;6.974;2023-04-30T14:10:15;17.90;99.90
8231;DHT22;4156;50.908;6.974;2023-04-30T14:12:41;17.90;99.90
8231;DHT22;4156;50.908;6.974;2023-04-30T14:15:07;17.90;99.90
8231;DHT22;4156;50.908;6.974;2023-04-30T14:17:32;17.90;99.90
8231;DHT22;4156;50.908;6.974;2023-04-30T14:19:58;18.00;99.90
8231;DHT22;4156;50.908;6.974;2023-04-30T14:22:24;17.90;99.90
8231;DHT22;4156;50.908;6.974;2023-04-30T14:24:51;18.00;99.90
8231;DHT22;4156;50.908;6.974;2023-04-30T14:27:16;17.90;99.90
8231;DHT22;4156;50.908;6.974;2023-04-30T14:29:42;18.00;99.90
8231;DHT22;4156;50.908;6.974;2023-04-30T14:32:07;18.00;99.90
8231;DHT22;4156;50.908;6.974;2023-04-30T14:34:33;18.10;99.90
8231;DHT22;4156;50.908;6.974;2023-04-30T14:37:00;18.10;99.90
8231;DHT22;4156;50.908;6.974;2023-04-30T14:39:26;18.10;99.90
8231;DHT22;4156;50.908;6.974;2023-04-30T14:41:52;18.10;99.90
8231;DHT22;4156;50.908;6.974;2023-04-30T14:44:18;18.10;99.90
8231;DHT22;4156;50.908;6.974;2023-04-30T14:46:43;18.10;99.90
8231;DHT22;4156;50.908;6.974;2023-04-30T14:49:09;18.10;99.90
8231;DHT22;4156;50.908;6.974;2023-04-30T14:51:35;18.20;99.90
8231;DHT22;4156;50.908;6.974;2023-04-30T14:54:01;18.20;99.90
8231;DHT22;4156;50.908;6.974;2023-04-30T14:56:27;18.20;99.90
8231;DHT22;4156;50.908;6.974;2023-04-30T14:58:52;18.20;99.90
8231;DHT22;4156;50.908;6.974;2023-04-30T15:01:18;18.20;99.90
8231;DHT22;4156;50.908;6.974;2023-04-30T15:03:43;18.20;99.90
8231;DHT22;4156;50.908;6.974;2023-04-30T15:06:09;18.20;99.90
8231;DHT22;4156;50.908;6.974;2023-04-30T15:08:35;18.20;99.90
8231;DHT22;4156;50.908;6.974;2023-04-30T15:11:00;18.20;99.90
8231;DHT22;4156;50.908;6.974;2023-04-30T15:13:28;18.20;99.90
8231;DHT22;4156;50.908;6.974;2023-04-30T15:15:53;18.30;99.90
8231;DHT22;4156;50.908;6.974;2023-04-30T15:18:19;18.30;99.90
8231;DHT22;4156;50.908;6.974;2023-04-30T15:20:44;18.40;99.90
8231;DHT22;4156;50.908;6.974;2023-04-30T15:23:11;18.30;99.90
8231;DHT22;4156;50.908;6.974;2023-04-30T15:25:36;18.30;99.90
8231;DHT22;4156;50.908;6.974;2023-04-30T15:28:02;18.30;99.90
8231;DHT22;4156;50.908;6.974;2023-04-30T15:30:28;18.30;99.90
8231;DHT22;4156;50.908;6.974;2023-04-30T15:32:53;18.30;99.90
8231;DHT22;4156;50.908;6.974;2023-04-30T15:35:19;18.30;99.90
8231;DHT22;4156;50.908;6.974;2023-04-30T15:37:45;18.30;99.90
8231;DHT22;4156;50.908;6.974;2023-04-30T15:40:10;18.40;99.90
8231;DHT22;4156;50.908;6.974;2023-04-30T15:42:39;18.40;99.90
8231;DHT22;4156;50.908;6.974;2023-04-30T15:45:06;18.30;99.90
8231;DHT22;4156;50.908;6.974;2023-04-30T15:47:31;18.40;99.90
8231;DHT22;4156;50.908;6.974;2023-04-30T15:49:57;18.40;99.90
8231;DHT22;4156;50.908;6.974;2023-04-30T15:52:22;18.40;99.90
8231;DHT22;4156;50.908;6.974;2023-04-30T15:54:48;18.40;99.90
8231;DHT22;4156;50.908;6.974;2023-04-30T15:57:15;18.40;99.90
8231;DHT22;4156;50.908;6.974;2023-04-30T15:59:40;18.40;99.90
8231;DHT22;4156;50.908;6.974;2023-04-30T16:02:06;18.40;99.90
8231;DHT22;4156;50.908;6.974;2023-04-30T16:04:31;18.40;99.90
8231;DHT22;4156;50.908;6.974;2023-04-30T16:06:57;18.40;99.90
8231;DHT22;4156;50.908;6.974;2023-04-30T16:09:24;18.40;99.90
8231;DHT22;4156;50.908;6.974;2023-04-30T16:11:51;18.50;99.90
8231;DHT22;4156;50.908;6.974;2023-04-30T16:14:16;18.50;99.90
8231;DHT22;4156;50.908;6.974;2023-04-30T16:16:42;18.50;99.90
8231;DHT22;4156;50.908;6.974;2023-04-30T16:19:08;18.50;99.90
8231;DHT22;4156;50.908;6.974;2023-04-30T16:21:34;18.50;99.90
8231;DHT22;4156;50.908;6.974;2023-04-30T16:24:05;18.50;99.90
8231;DHT22;4156;50.908;6.974;2023-04-30T16:26:31;18.60;99.90
8231;DHT22;4156;50.908;6.974;2023-04-30T16:28:59;18.50;99.90
8231;DHT22;4156;50.908;6.974;2023-04-30T16:31:25;18.60;99.90
8231;DHT22;4156;50.908;6.974;2023-04-30T16:33:51;18.60;99.90